createdAt,value
2023-04-15T00:02:21.449Z,6.81
2023-04-15T00:04:49.851Z,6.77
2023-04-15T00:07:19.210Z,6.69
2023-04-15T00:09:47.047Z,6.62
2023-04-15T00:12:14.883Z,6.53
2023-04-15T00:14:42.770Z,6.58
2023-04-15T00:17:10.589Z,6.46
2023-04-15T00:19:38.538Z,6.47
2023-04-15T00:22:06.351Z,6.42
2023-04-15T00:24:35.500Z,6.30
2023-04-15T00:27:03.607Z,6.34
2023-04-15T00:29:31.862Z,6.34
2023-04-15T00:31:59.638Z,6.27
2023-04-15T00:34:28.874Z,6.22
2023-04-15T00:36:56.757Z,6.26
2023-04-15T00:39:24.565Z,6.24
2023-04-15T00:41:54.358Z,6.11
2023-04-15T00:44:22.501Z,6.15
2023-04-15T00:46:52.986Z,6.07
2023-04-15T00:49:20.861Z,6.13
2023-04-15T00:51:49.039Z,6.17
2023-04-15T00:54:17.278Z,6.13
2023-04-15T00:56:45.191Z,6.15
2023-04-15T00:59:15.732Z,6.03
2023-04-15T01:01:45.274Z,6.02
2023-04-15T01:04:13.328Z,5.92
2023-04-15T01:06:41.599Z,5.83
2023-04-15T01:09:09.578Z,5.81
2023-04-15T01:11:39.885Z,5.80
2023-04-15T01:14:10.352Z,5.79
2023-04-15T01:16:41.124Z,5.75
2023-04-15T01:19:12.022Z,5.53
2023-04-15T01:21:40.963Z,5.53
2023-04-15T01:24:11.646Z,5.56
2023-04-15T01:26:43.502Z,5.54
2023-04-15T01:29:12.302Z,5.53
2023-04-15T01:31:40.586Z,5.52
2023-04-15T01:34:08.440Z,5.48
2023-04-15T01:36:36.774Z,5.33
2023-04-15T01:39:05.619Z,5.29
2023-04-15T01:41:33.536Z,5.32
2023-04-15T01:44:02.739Z,5.30
2023-04-15T01:46:30.709Z,5.36
2023-04-15T01:48:58.670Z,5.39
2023-04-15T01:51:27.257Z,5.38
2023-04-15T01:53:56.858Z,5.38
2023-04-15T01:56:25.363Z,5.33
2023-04-15T01:58:53.665Z,5.29
2023-04-15T02:01:23.338Z,5.21
2023-04-15T02:03:52.210Z,5.20
2023-04-15T02:06:20.089Z,5.21
2023-04-15T02:08:49.367Z,5.06
2023-04-15T02:11:17.444Z,4.95
2023-04-15T02:13:45.294Z,4.97
2023-04-15T02:16:20.658Z,4.99
2023-04-15T02:18:49.884Z,5.02
2023-04-15T02:21:18.919Z,5.02
2023-04-15T02:23:48.279Z,5.02
2023-04-15T02:26:16.221Z,4.94
2023-04-15T02:28:43.987Z,4.95
2023-04-15T02:31:14.886Z,4.91
2023-04-15T02:33:42.720Z,4.86
2023-04-15T02:36:12.399Z,4.84
2023-04-15T02:38:42.372Z,4.74
2023-04-15T02:41:10.542Z,4.74
2023-04-15T02:43:39.993Z,4.77
2023-04-15T02:46:12.832Z,4.80
2023-04-15T02:48:40.672Z,4.75
2023-04-15T02:51:15.804Z,4.70
2023-04-15T02:53:44.133Z,4.73
2023-04-15T02:56:12.537Z,4.68
2023-04-15T02:58:41.236Z,4.65
2023-04-15T03:01:09.488Z,4.59
2023-04-15T03:03:38.309Z,4.63
2023-04-15T03:06:06.564Z,4.56
2023-04-15T03:08:36.590Z,4.45
2023-04-15T03:11:04.968Z,4.41
2023-04-15T03:13:34.117Z,4.43
2023-04-15T03:16:09.654Z,4.46
2023-04-15T03:18:38.394Z,4.45
2023-04-15T03:21:06.721Z,4.44
2023-04-15T03:23:38.284Z,4.41
2023-04-15T03:26:06.832Z,4.31
2023-04-15T03:28:35.165Z,4.26
2023-04-15T03:31:03.488Z,4.25
2023-04-15T03:33:31.828Z,4.03
2023-04-15T03:35:59.677Z,3.92
2023-04-15T03:38:27.935Z,3.93
2023-04-15T03:40:57.048Z,3.93
2023-04-15T03:43:24.834Z,3.92
2023-04-15T03:45:52.629Z,3.96
2023-04-15T03:48:20.577Z,3.95
2023-04-15T03:50:48.386Z,3.93
2023-04-15T03:53:16.428Z,3.89
2023-04-15T03:55:44.766Z,3.84
2023-04-15T03:58:13.944Z,3.78
2023-04-15T04:00:42.498Z,3.70
2023-04-15T04:03:10.453Z,3.55
2023-04-15T04:05:39.043Z,3.58
2023-04-15T04:08:07.516Z,3.64
2023-04-15T04:10:35.339Z,3.65
2023-04-15T04:13:03.309Z,3.66
2023-04-15T04:15:32.497Z,3.69
2023-04-15T04:18:00.827Z,3.74
2023-04-15T04:20:28.696Z,3.77
2023-04-15T04:22:56.618Z,3.69
2023-04-15T04:25:24.505Z,3.68
2023-04-15T04:27:52.477Z,3.60
2023-04-15T04:30:20.397Z,3.53
2023-04-15T04:32:51.137Z,3.48
2023-04-15T04:35:18.958Z,3.42
2023-04-15T04:37:46.818Z,3.37
2023-04-15T04:40:14.892Z,3.37
2023-04-15T04:42:42.791Z,3.40
2023-04-15T04:45:11.220Z,3.34
2023-04-15T04:47:39.088Z,3.32
2023-04-15T04:50:10.275Z,3.31
2023-04-15T04:52:38.137Z,3.31
2023-04-15T04:55:08.520Z,3.34
2023-04-15T04:57:37.685Z,3.31
2023-04-15T05:00:07.152Z,3.35
2023-04-15T05:02:35.264Z,3.29
2023-04-15T05:05:03.237Z,3.24
2023-04-15T05:07:32.666Z,3.28
2023-04-15T05:10:01.013Z,3.34
2023-04-15T05:12:28.865Z,3.41
2023-04-15T05:14:56.701Z,3.46
2023-04-15T05:17:24.708Z,3.52
2023-04-15T05:19:53.793Z,3.54
2023-04-15T05:22:21.679Z,3.56
2023-04-15T05:24:50.868Z,3.62
2023-04-15T05:27:19.139Z,3.77
2023-04-15T05:29:47.010Z,4.06
2023-04-15T05:32:15.108Z,4.22
2023-04-15T05:34:42.944Z,4.52
2023-04-15T05:37:10.870Z,4.88
2023-04-15T05:39:38.718Z,5.26
2023-04-15T05:42:08.100Z,5.58
2023-04-15T05:44:36.119Z,5.86
2023-04-15T05:47:05.853Z,6.08
2023-04-15T05:49:33.894Z,6.10
2023-04-15T05:52:01.804Z,6.73
2023-04-15T05:54:29.574Z,7.41
2023-04-15T05:56:57.600Z,7.50
2023-04-15T05:59:27.131Z,7.47
2023-04-15T06:01:55.055Z,7.96
2023-04-15T06:04:23.076Z,8.69
2023-04-15T06:06:51.284Z,9.35
2023-04-15T06:09:19.065Z,9.74
2023-04-15T06:11:46.875Z,9.59
2023-04-15T06:14:14.709Z,9.32
2023-04-15T06:16:44.132Z,10.08
2023-04-15T06:19:12.395Z,10.58
2023-04-15T06:21:40.548Z,10.84
2023-04-15T06:24:08.601Z,11.06
2023-04-15T06:26:36.437Z,11.27
2023-04-15T06:29:04.337Z,11.74
2023-04-15T06:31:32.287Z,11.90
2023-04-15T06:34:01.593Z,12.16
2023-04-15T06:36:29.586Z,11.66
2023-04-15T06:38:57.631Z,11.87
2023-04-15T06:41:26.049Z,11.96
2023-04-15T06:43:53.953Z,12.27
2023-04-15T06:46:22.236Z,12.37
2023-04-15T06:48:50.467Z,12.34
2023-04-15T06:51:19.827Z,12.51
2023-04-15T06:53:47.603Z,13.15
2023-04-15T06:56:15.865Z,12.59
2023-04-15T06:58:43.767Z,13.00
2023-04-15T07:01:11.771Z,12.24
2023-04-15T07:03:39.738Z,13.23
2023-04-15T07:06:08.759Z,13.93
2023-04-15T07:08:38.149Z,14.06
2023-04-15T07:11:06.180Z,13.66
2023-04-15T07:13:34.163Z,13.92
2023-04-15T07:16:02.366Z,14.12
2023-04-15T07:18:30.499Z,14.28
2023-04-15T07:20:58.367Z,14.42
2023-04-15T07:23:26.266Z,14.81
2023-04-15T07:25:55.787Z,15.25
2023-04-15T07:28:23.677Z,15.26
2023-04-15T07:30:51.652Z,15.01
2023-04-15T07:33:19.622Z,14.95
2023-04-15T07:35:47.585Z,14.74
2023-04-15T07:38:15.641Z,14.26
2023-04-15T07:40:43.626Z,14.34
2023-04-15T07:43:13.645Z,14.01
2023-04-15T07:45:41.707Z,13.61
2023-04-15T07:48:09.595Z,14.22
2023-04-15T07:50:38.048Z,14.08
2023-04-15T07:53:07.222Z,14.04
2023-04-15T07:55:35.069Z,14.63
2023-04-15T07:58:02.957Z,14.58
2023-04-15T08:00:32.280Z,14.23
2023-04-15T08:03:00.389Z,14.54
2023-04-15T08:05:28.751Z,14.35
2023-04-15T08:07:57.294Z,14.81
2023-04-15T08:10:25.190Z,14.62
2023-04-15T08:12:54.328Z,14.10
2023-04-15T08:15:22.572Z,13.81
2023-04-15T08:17:51.796Z,14.72
2023-04-15T08:20:19.947Z,14.64
2023-04-15T08:22:51.818Z,14.53
2023-04-15T08:25:20.463Z,14.18
2023-04-15T08:27:48.432Z,13.68
2023-04-15T08:30:16.418Z,13.56
2023-04-15T08:32:47.539Z,13.61
2023-04-15T08:35:16.933Z,13.49
2023-04-15T08:37:44.815Z,13.14
2023-04-15T08:40:13.569Z,13.53
2023-04-15T08:42:50.170Z,13.36
2023-04-15T08:45:19.252Z,13.05
2023-04-15T08:47:49.348Z,13.46
2023-04-15T08:50:19.738Z,13.69
2023-04-15T08:52:47.927Z,14.32
2023-04-15T08:55:17.287Z,14.28
2023-04-15T08:57:45.351Z,14.58
2023-04-15T09:00:15.000Z,14.56
2023-04-15T09:02:44.061Z,14.30
2023-04-15T09:05:12.251Z,14.54
2023-04-15T09:07:41.942Z,14.26
2023-04-15T09:10:11.043Z,14.76
2023-04-15T09:12:38.907Z,15.21
2023-04-15T09:15:07.967Z,15.61
2023-04-15T09:17:36.026Z,16.47
2023-04-15T09:20:11.266Z,15.69
2023-04-15T09:22:39.711Z,15.38
2023-04-15T09:25:27.535Z,15.02
2023-04-15T09:27:57.485Z,15.07
2023-04-15T09:30:25.915Z,15.69
2023-04-15T09:32:54.873Z,16.16
2023-04-15T09:35:24.043Z,16.92
2023-04-15T09:37:52.453Z,16.43
2023-04-15T09:40:34.620Z,16.54
2023-04-15T09:43:03.140Z,15.85
2023-04-15T09:45:31.045Z,16.74
2023-04-15T09:47:59.914Z,16.61
2023-04-15T09:50:29.987Z,17.14
2023-04-15T09:52:58.062Z,16.25
2023-04-15T09:55:26.291Z,16.03
2023-04-15T09:57:57.690Z,16.40
2023-04-15T10:00:28.680Z,17.09
2023-04-15T10:02:57.381Z,17.27
2023-04-15T10:05:29.836Z,17.15
2023-04-15T10:07:58.625Z,18.15
2023-04-15T10:10:26.668Z,18.22
2023-04-15T10:12:56.279Z,18.66
2023-04-15T10:15:25.526Z,17.99
2023-04-15T10:17:55.798Z,17.99
2023-04-15T10:20:24.421Z,18.01
2023-04-15T10:22:54.013Z,18.12
2023-04-15T10:25:23.469Z,18.43
2023-04-15T10:27:52.871Z,17.10
2023-04-15T10:30:23.212Z,17.38
2023-04-15T10:32:51.640Z,17.31
2023-04-15T10:35:21.661Z,17.46
2023-04-15T10:37:49.464Z,18.18
2023-04-15T10:40:27.287Z,18.56
2023-04-15T10:42:57.096Z,18.39
2023-04-15T10:45:28.695Z,17.40
2023-04-15T10:47:57.404Z,17.16
2023-04-15T10:50:28.157Z,16.91
2023-04-15T10:52:57.442Z,16.75
2023-04-15T10:55:27.417Z,16.25
2023-04-15T10:57:59.289Z,16.26
2023-04-15T11:00:31.040Z,16.76
2023-04-15T11:03:00.764Z,15.36
2023-04-15T11:05:53.130Z,16.10
2023-04-15T11:08:21.730Z,15.88
2023-04-15T11:10:54.693Z,15.87
2023-04-15T11:13:29.237Z,15.86
2023-04-15T11:16:03.325Z,15.44
2023-04-15T11:18:38.064Z,15.82
2023-04-15T11:21:07.818Z,16.22
2023-04-15T11:23:38.577Z,15.94
2023-04-15T11:26:09.545Z,16.66
2023-04-15T11:28:39.175Z,15.65
2023-04-15T11:31:11.261Z,15.08
2023-04-15T11:33:54.589Z,14.97
2023-04-15T11:36:22.505Z,15.49
2023-04-15T11:38:50.458Z,15.42
2023-04-15T11:41:22.109Z,15.30
2023-04-15T11:43:50.163Z,15.15
2023-04-15T11:46:19.752Z,14.87
2023-04-15T11:48:48.430Z,15.36
2023-04-15T11:51:16.408Z,14.62
2023-04-15T11:53:46.428Z,14.99
2023-04-15T11:56:19.561Z,14.79
2023-04-15T11:58:47.809Z,14.80
2023-04-15T12:01:15.579Z,14.58
2023-04-15T12:03:47.297Z,14.25
2023-04-15T12:06:19.092Z,14.55
2023-04-15T12:08:58.423Z,14.47
2023-04-15T12:11:41.408Z,14.39
2023-04-15T12:14:25.694Z,13.75
2023-04-15T12:16:58.368Z,13.66
2023-04-15T12:19:29.765Z,13.77
2023-04-15T12:22:01.124Z,13.17
2023-04-15T12:24:29.308Z,13.11
2023-04-15T12:27:02.719Z,13.33
2023-04-15T12:29:31.572Z,13.61
2023-04-15T12:32:01.332Z,13.23
2023-04-15T12:34:32.984Z,12.92
2023-04-15T12:37:03.345Z,13.31
2023-04-15T12:39:33.055Z,12.87
2023-04-15T12:42:01.491Z,12.88
2023-04-15T12:44:30.113Z,12.84
2023-04-15T12:46:58.640Z,12.49
2023-04-15T12:49:27.389Z,12.77
2023-04-15T12:52:00.681Z,12.90
2023-04-15T12:54:28.985Z,12.70
2023-04-15T12:56:57.639Z,12.50
2023-04-15T12:59:25.945Z,12.58
2023-04-15T13:01:54.725Z,12.69
2023-04-15T13:04:23.302Z,12.67
2023-04-15T13:06:51.340Z,12.35
2023-04-15T13:09:20.594Z,12.56
2023-04-15T13:11:48.448Z,12.64
2023-04-15T13:14:16.393Z,12.21
2023-04-15T13:16:44.182Z,12.12
2023-04-15T13:19:11.984Z,12.34
2023-04-15T13:21:39.890Z,12.43
2023-04-15T13:24:08.579Z,12.01
2023-04-15T13:26:38.029Z,12.02
2023-04-15T13:29:06.029Z,12.04
2023-04-15T13:31:33.845Z,12.13
2023-04-15T13:34:01.852Z,11.92
2023-04-15T13:36:29.777Z,11.92
2023-04-15T13:38:58.360Z,11.84
2023-04-15T13:41:26.319Z,11.66
2023-04-15T13:43:55.702Z,11.69
2023-04-15T13:46:23.530Z,11.74
2023-04-15T13:48:51.344Z,11.81
2023-04-15T13:51:19.129Z,11.91
2023-04-15T13:53:46.959Z,12.10
2023-04-15T13:56:14.822Z,11.71
2023-04-15T13:58:42.724Z,11.85
2023-04-15T14:01:11.993Z,11.88
2023-04-15T14:03:40.111Z,11.63
2023-04-15T14:06:08.329Z,11.75
2023-04-15T14:08:36.402Z,11.65
2023-04-15T14:11:04.641Z,11.67
2023-04-15T14:13:33.485Z,11.82
2023-04-15T14:16:01.481Z,11.78
2023-04-15T14:18:30.922Z,11.68
2023-04-15T14:20:58.691Z,11.99
2023-04-15T14:23:26.727Z,11.73
2023-04-15T14:25:54.619Z,11.74
2023-04-15T14:28:22.464Z,11.62
2023-04-15T14:30:50.373Z,11.67
2023-04-15T14:33:18.452Z,11.66
2023-04-15T14:35:48.278Z,11.43
2023-04-15T14:38:16.217Z,11.49
2023-04-15T14:40:44.715Z,11.45
2023-04-15T14:43:12.857Z,11.47
2023-04-15T14:45:43.629Z,11.64
2023-04-15T14:48:13.853Z,11.71
2023-04-15T14:50:42.179Z,11.50
2023-04-15T14:53:11.303Z,11.57
2023-04-15T14:55:39.137Z,11.60
2023-04-15T14:58:08.149Z,11.39
2023-04-15T15:00:39.208Z,11.49
2023-04-15T15:03:12.598Z,11.37
2023-04-15T15:05:41.154Z,11.41
2023-04-15T15:08:09.662Z,11.41
2023-04-15T15:10:48.085Z,11.29
2023-04-15T15:13:16.974Z,11.38
2023-04-15T15:15:44.901Z,11.45
2023-04-15T15:18:12.791Z,11.36
2023-04-15T15:20:40.836Z,11.14
2023-04-15T15:23:08.729Z,10.97
2023-04-15T15:25:38.040Z,11.05
2023-04-15T15:28:06.291Z,10.86
2023-04-15T15:30:34.151Z,10.95
2023-04-15T15:33:02.102Z,10.80
2023-04-15T15:35:30.178Z,10.78
2023-04-15T15:37:58.111Z,10.78
2023-04-15T15:40:26.140Z,10.83
2023-04-15T15:42:55.524Z,11.03
2023-04-15T15:45:23.390Z,11.03
2023-04-15T15:47:51.363Z,11.10
2023-04-15T15:50:19.331Z,11.18
2023-04-15T15:52:47.286Z,10.94
2023-04-15T15:55:15.340Z,10.87
2023-04-15T15:57:43.145Z,10.86
2023-04-15T16:00:13.882Z,10.65
2023-04-15T16:05:12.885Z,10.46
2023-04-15T16:07:40.749Z,10.43
2023-04-15T16:10:09.865Z,10.56
2023-04-15T16:12:37.712Z,10.55
2023-04-15T16:15:06.456Z,10.52
2023-04-15T16:17:36.286Z,10.49
2023-04-15T16:20:05.922Z,10.39
2023-04-15T16:22:34.277Z,10.22
2023-04-15T16:25:02.335Z,9.99
2023-04-15T16:27:30.367Z,10.12
2023-04-15T16:29:59.373Z,10.10
2023-04-15T16:32:27.517Z,10.14
2023-04-15T16:34:56.793Z,9.89
2023-04-15T16:37:24.627Z,9.90
2023-04-15T16:39:52.412Z,9.84
2023-04-15T16:42:20.364Z,9.88
2023-04-15T16:44:48.219Z,9.90
2023-04-15T16:47:16.440Z,9.84
2023-04-15T16:49:44.298Z,9.79
2023-04-15T16:52:13.523Z,9.78
2023-04-15T16:54:41.672Z,9.65
2023-04-15T16:57:09.765Z,9.71
2023-04-15T16:59:37.589Z,9.63
2023-04-15T17:02:05.513Z,9.60
2023-04-15T17:04:34.896Z,9.52
2023-04-15T17:07:02.880Z,9.46
2023-04-15T17:09:32.139Z,9.45
2023-04-15T17:11:59.966Z,9.53
2023-04-15T17:14:29.451Z,9.49
2023-04-15T17:16:57.487Z,9.55
2023-04-15T17:19:26.710Z,9.60
2023-04-15T17:21:55.159Z,9.55
2023-04-15T17:24:23.157Z,9.66
2023-04-15T17:26:52.396Z,9.58
2023-04-15T17:29:20.246Z,9.50
2023-04-15T17:31:48.306Z,9.40
2023-04-15T17:34:16.315Z,9.39
2023-04-15T17:36:44.232Z,9.38
2023-04-15T17:39:14.013Z,9.44
2023-04-15T17:41:41.976Z,9.32
2023-04-15T17:44:11.150Z,9.28
2023-04-15T17:46:39.035Z,9.26
2023-04-15T17:49:07.121Z,9.26
2023-04-15T17:51:35.154Z,9.24
2023-04-15T17:54:08.662Z,9.32
2023-04-15T17:56:36.580Z,9.32
2023-04-15T17:59:04.400Z,9.15
2023-04-15T18:01:33.630Z,9.24
2023-04-15T18:04:01.849Z,9.23
2023-04-15T18:06:29.955Z,9.19
2023-04-15T18:08:58.966Z,9.24
2023-04-15T18:11:27.346Z,9.23
2023-04-15T18:13:55.211Z,9.31
2023-04-15T18:16:23.307Z,9.34
2023-04-15T18:18:52.870Z,9.28
2023-04-15T18:21:20.913Z,9.09
2023-04-15T18:23:48.948Z,9.06
2023-04-15T18:26:16.810Z,9.01
2023-04-15T18:28:44.819Z,8.93
2023-04-15T18:31:12.677Z,8.85
2023-04-15T18:33:40.630Z,8.84
2023-04-15T18:36:11.063Z,8.78
2023-04-15T18:38:38.932Z,8.85
2023-04-15T18:41:08.807Z,8.81
2023-04-15T18:43:37.783Z,8.84
2023-04-15T18:46:10.206Z,8.82
2023-04-15T18:48:38.132Z,8.88
2023-04-15T18:51:05.969Z,8.95
2023-04-15T18:53:35.273Z,8.81
2023-04-15T18:56:03.437Z,8.85
2023-04-15T18:59:09.958Z,8.79
2023-04-15T19:01:19.323Z,8.80
2023-04-15T19:03:47.379Z,8.75
2023-04-15T19:06:15.375Z,8.67
2023-04-15T19:08:44.588Z,8.57
2023-04-15T19:11:12.578Z,8.51
2023-04-15T19:13:40.568Z,8.52
2023-04-15T19:16:08.458Z,8.56
2023-04-15T19:18:36.464Z,8.54
2023-04-15T19:21:04.492Z,8.54
2023-04-15T19:23:32.852Z,8.52
2023-04-15T19:26:02.276Z,8.54
2023-04-15T19:28:30.348Z,8.61
2023-04-15T19:30:58.968Z,8.56
2023-04-15T19:33:31.110Z,8.56
2023-04-15T19:35:59.336Z,8.52
2023-04-15T19:38:27.537Z,8.51
2023-04-15T19:40:55.506Z,8.48
2023-04-15T19:43:25.048Z,8.41
2023-04-15T19:45:54.638Z,8.45
2023-04-15T19:48:24.245Z,8.49
2023-04-15T19:50:52.127Z,8.46
2023-04-15T19:53:19.923Z,8.46
2023-04-15T19:55:48.493Z,8.40
2023-04-15T19:58:16.608Z,8.39
2023-04-15T20:00:46.525Z,8.35
2023-04-15T20:03:14.951Z,8.38
2023-04-15T20:05:43.390Z,8.41
2023-04-15T20:08:11.370Z,8.37
2023-04-15T20:10:39.406Z,8.40
2023-04-15T20:13:07.206Z,8.40
2023-04-15T20:15:35.143Z,8.43
2023-04-15T20:18:04.357Z,8.34
2023-04-15T20:20:32.293Z,8.33
2023-04-15T20:23:00.141Z,8.25
2023-04-15T20:25:28.165Z,8.36
2023-04-15T20:27:56.779Z,8.27
2023-04-15T20:30:24.609Z,8.16
2023-04-15T20:32:52.544Z,8.16
2023-04-15T20:35:21.783Z,8.09
2023-04-15T20:37:50.447Z,8.11
2023-04-15T20:40:19.405Z,8.16
2023-04-15T20:42:47.599Z,8.17
2023-04-15T20:45:15.506Z,8.09
2023-04-15T20:47:43.876Z,8.03
2023-04-15T20:50:12.762Z,8.02
2023-04-15T20:52:41.929Z,8.01
2023-04-15T20:55:10.456Z,7.99
2023-04-15T20:57:38.340Z,7.99
2023-04-15T21:00:09.378Z,7.97
2023-04-15T21:02:37.510Z,8.00
2023-04-15T21:05:06.091Z,7.87
2023-04-15T21:07:33.982Z,7.94
2023-04-15T21:10:03.292Z,8.01
2023-04-15T21:12:31.174Z,8.02
2023-04-15T21:14:59.009Z,7.94
2023-04-15T21:17:26.985Z,7.91
2023-04-15T21:19:54.899Z,7.89
2023-04-15T21:22:22.890Z,7.96
2023-04-15T21:24:50.910Z,7.97
2023-04-15T21:27:20.264Z,7.92
2023-04-15T21:29:48.222Z,7.91
2023-04-15T21:32:16.531Z,7.89
2023-04-15T21:34:44.443Z,7.92
2023-04-15T21:37:12.636Z,7.96
2023-04-15T21:39:40.778Z,7.95
2023-04-15T21:42:08.639Z,7.92
2023-04-15T21:44:38.012Z,7.90
2023-04-15T21:47:05.936Z,7.78
2023-04-15T21:49:33.985Z,7.80
2023-04-15T21:52:01.805Z,7.77
2023-04-15T21:54:31.062Z,7.87
2023-04-15T21:56:58.846Z,7.89
2023-04-15T21:59:27.248Z,7.92
2023-04-15T22:01:56.640Z,7.86
2023-04-15T22:04:24.916Z,7.79
2023-04-15T22:06:55.659Z,7.80
2023-04-15T22:09:23.619Z,7.79
2023-04-15T22:11:51.499Z,7.80
2023-04-15T22:14:19.303Z,7.83
2023-04-15T22:16:47.284Z,7.80
2023-04-15T22:19:16.626Z,7.80
2023-04-15T22:21:44.578Z,7.81
2023-04-15T22:24:32.593Z,7.79
2023-04-15T22:27:00.577Z,7.80
2023-04-15T22:29:28.468Z,7.79
2023-04-15T22:31:56.421Z,7.86
2023-04-15T22:34:25.773Z,7.85
2023-04-15T22:36:53.881Z,7.88
2023-04-15T22:39:21.910Z,7.86
2023-04-15T22:41:50.779Z,7.84
2023-04-15T22:44:18.666Z,7.86
2023-04-15T22:46:46.514Z,7.90
2023-04-15T22:49:14.377Z,7.91
2023-04-15T22:51:44.363Z,7.83
2023-04-15T22:54:12.769Z,7.82
2023-04-15T22:56:40.827Z,7.85
2023-04-15T22:59:08.874Z,7.87
2023-04-15T23:01:38.116Z,7.82
2023-04-15T23:04:09.431Z,7.78
2023-04-15T23:06:53.001Z,7.75
2023-04-15T23:09:21.641Z,7.74
2023-04-15T23:11:54.724Z,7.66
2023-04-15T23:14:22.562Z,7.64
2023-04-15T23:16:50.412Z,7.65
2023-04-15T23:19:18.204Z,7.73
2023-04-15T23:21:46.584Z,7.73
2023-04-15T23:24:15.917Z,7.73
2023-04-15T23:26:43.979Z,7.68
2023-04-15T23:29:12.015Z,7.70
2023-04-15T23:31:41.422Z,7.72
2023-04-15T23:34:09.480Z,7.68
2023-04-15T23:36:37.311Z,7.64
2023-04-15T23:39:05.193Z,7.67
2023-04-15T23:41:34.362Z,7.58
2023-04-15T23:44:02.204Z,7.68
2023-04-15T23:46:30.100Z,7.67
2023-04-15T23:48:58.127Z,7.66
2023-04-15T23:51:25.940Z,7.64
2023-04-15T23:53:53.801Z,7.66
2023-04-15T23:56:21.776Z,7.63
2023-04-15T23:58:50.995Z,7.53
